createdAt,value
2018-04-18T00:00:13.373Z,84.20
2018-04-18T00:02:40.872Z,84.20
2018-04-18T00:05:08.467Z,84.20
2018-04-18T00:07:35.970Z,84.30
2018-04-18T00:10:03.587Z,84.40
2018-04-18T00:12:31.217Z,84.50
2018-04-18T00:14:58.745Z,84.50
2018-04-18T00:17:26.241Z,84.40
2018-04-18T00:19:53.762Z,84.50
2018-04-18T00:22:21.262Z,84.40
2018-04-18T00:24:48.786Z,84.40
2018-04-18T00:27:16.692Z,84.50
2018-04-18T00:29:44.201Z,84.50
2018-04-18T00:32:11.898Z,84.60
2018-04-18T00:34:39.425Z,84.70
2018-04-18T00:37:07.334Z,84.90
2018-04-18T00:39:34.893Z,84.90
2018-04-18T00:42:02.425Z,85.10
2018-04-18T00:44:29.950Z,85.20
2018-04-18T00:46:57.458Z,85.10
2018-04-18T00:49:24.982Z,84.80
2018-04-18T00:51:52.481Z,84.70
2018-04-18T00:54:20.013Z,84.90
2018-04-18T00:56:47.517Z,85.10
2018-04-18T00:59:15.021Z,85.30
2018-04-18T01:01:42.573Z,85.30
2018-04-18T01:04:10.081Z,85.30
2018-04-18T01:06:37.606Z,85.30
2018-04-18T01:09:05.989Z,85.40
2018-04-18T01:11:33.515Z,85.60
2018-04-18T01:14:01.078Z,85.60
2018-04-18T01:16:28.603Z,85.80
2018-04-18T01:18:56.504Z,85.90
2018-04-18T01:21:24.017Z,85.70
2018-04-18T01:23:51.517Z,85.40
2018-04-18T01:26:19.165Z,85.40
2018-04-18T01:28:47.033Z,85.40
2018-04-18T01:31:14.559Z,85.30
2018-04-18T01:33:42.449Z,85.40
2018-04-18T01:36:10.004Z,85.40
2018-04-18T01:38:37.663Z,85.10
2018-04-18T01:41:05.310Z,84.90
2018-04-18T01:43:32.821Z,85.10
2018-04-18T01:46:00.448Z,85.20
2018-04-18T01:48:28.308Z,85.30
2018-04-18T01:50:55.962Z,85.30
2018-04-18T01:53:23.489Z,85.40
2018-04-18T01:55:50.991Z,85.30
2018-04-18T01:58:18.715Z,85.50
2018-04-18T02:00:46.213Z,85.80
2018-04-18T02:03:13.831Z,85.80
2018-04-18T02:05:41.705Z,86.10
2018-04-18T02:08:09.289Z,86.10
2018-04-18T02:10:36.794Z,86.30
2018-04-18T02:13:04.317Z,86.30
2018-04-18T02:15:31.819Z,86.50
2018-04-18T02:17:59.344Z,86.60
2018-04-18T02:20:26.849Z,86.80
2018-04-18T02:22:54.378Z,87.10
2018-04-18T02:25:21.878Z,87.20
2018-04-18T02:27:49.369Z,87.20
2018-04-18T02:30:16.892Z,87.20
2018-04-18T02:32:44.515Z,86.80
2018-04-18T02:35:12.041Z,86.80
2018-04-18T02:37:39.943Z,86.60
2018-04-18T02:40:07.463Z,86.60
2018-04-18T02:42:35.553Z,86.20
2018-04-18T02:45:03.077Z,86.10
2018-04-18T02:47:30.977Z,86.30
2018-04-18T02:49:58.494Z,86.00
2018-04-18T02:52:26.190Z,85.80
2018-04-18T02:54:53.717Z,85.80
2018-04-18T02:57:21.617Z,85.80
2018-04-18T02:59:49.137Z,85.80
2018-04-18T03:02:16.641Z,85.80
2018-04-18T03:04:44.142Z,85.80
2018-04-18T03:07:12.073Z,86.00
2018-04-18T03:09:39.561Z,86.60
2018-04-18T03:12:07.259Z,86.70
2018-04-18T03:14:34.798Z,86.90
2018-04-18T03:17:02.326Z,87.30
2018-04-18T03:19:29.827Z,87.50
2018-04-18T03:21:57.349Z,87.20
2018-04-18T03:24:25.252Z,87.20
2018-04-18T03:26:52.790Z,87.10
2018-04-18T03:29:20.298Z,87.20
2018-04-18T03:31:47.793Z,87.20
2018-04-18T03:34:15.320Z,87.50
2018-04-18T03:36:42.822Z,87.80
2018-04-18T03:39:10.360Z,88.10
2018-04-18T03:41:38.248Z,88.40
2018-04-18T03:44:05.763Z,88.40
2018-04-18T03:46:33.261Z,88.20
2018-04-18T03:49:00.777Z,88.20
2018-04-18T03:51:28.769Z,88.10
2018-04-18T03:53:56.421Z,87.80
2018-04-18T03:56:24.098Z,88.00
2018-04-18T03:58:51.617Z,88.20
2018-04-18T04:01:19.619Z,88.20
2018-04-18T04:03:48.057Z,87.60
2018-04-18T04:06:15.568Z,87.40
2018-04-18T04:08:43.117Z,87.20
2018-04-18T04:11:10.674Z,87.20
2018-04-18T04:13:38.165Z,87.20
